createdAt,value
2023-01-09T06:32:01.894Z,5.50
2023-01-09T06:34:29.049Z,5.50
2023-01-09T06:36:56.220Z,5.60
2023-01-09T06:39:23.657Z,5.50
2023-01-09T06:41:50.862Z,5.40
2023-01-09T06:44:19.024Z,5.50
2023-01-09T06:46:46.533Z,5.60
2023-01-09T06:49:13.769Z,5.60
2023-01-09T06:51:41.114Z,5.70
2023-01-09T06:54:08.291Z,5.80
2023-01-09T06:56:35.535Z,5.70
2023-01-09T06:59:03.189Z,5.80
2023-01-09T07:01:30.552Z,5.80
2023-01-09T07:03:57.926Z,5.70
2023-01-09T07:06:25.621Z,5.70
2023-01-09T07:08:53.056Z,5.50
2023-01-09T07:11:20.657Z,5.60
2023-01-09T07:13:48.305Z,5.90
2023-01-09T07:16:15.885Z,5.70
2023-01-09T07:18:43.334Z,5.80
2023-01-09T07:21:11.137Z,5.70
2023-01-09T07:23:39.615Z,5.80
2023-01-09T07:26:07.975Z,5.80
2023-01-09T07:28:36.266Z,5.70
2023-01-09T07:31:05.200Z,6.10
2023-01-09T07:36:00.819Z,5.50
2023-01-09T07:38:28.246Z,5.60
2023-01-09T07:40:55.827Z,6.30
2023-01-09T07:43:24.004Z,5.60
2023-01-09T07:45:51.385Z,5.70
2023-01-09T07:48:18.734Z,5.80
2023-01-09T07:50:45.995Z,5.90
2023-01-09T07:53:13.573Z,6.00
2023-01-09T07:55:42.931Z,6.00
2023-01-09T07:58:13.386Z,6.00
2023-01-09T08:00:40.891Z,6.10
2023-01-09T08:03:08.321Z,6.10
2023-01-09T08:05:36.163Z,6.90
2023-01-09T08:08:03.457Z,6.20
2023-01-09T08:10:30.850Z,6.30
2023-01-09T08:12:58.472Z,6.40
2023-01-09T08:15:26.125Z,7.60
2023-01-09T08:17:53.545Z,6.60
2023-01-09T08:20:20.819Z,6.60
2023-01-09T08:22:53.586Z,6.60
2023-01-09T08:25:21.136Z,6.60
2023-01-09T08:27:48.647Z,6.70
2023-01-09T08:30:17.391Z,6.80
2023-01-09T08:32:50.130Z,6.90
2023-01-09T08:35:17.639Z,7.10
2023-01-09T08:37:47.460Z,7.20
2023-01-09T08:40:16.049Z,7.20
2023-01-09T08:43:04.218Z,6.30
2023-01-09T08:45:52.822Z,6.50
2023-01-09T08:48:20.335Z,7.20
2023-01-09T08:50:47.820Z,7.30
2023-01-09T08:53:16.291Z,7.40
2023-01-09T08:55:43.951Z,7.40
2023-01-09T08:58:11.443Z,7.40
2023-01-09T09:00:39.299Z,7.40
2023-01-09T09:03:06.673Z,7.40
2023-01-09T09:05:34.054Z,7.30
2023-01-09T09:08:02.724Z,7.30
2023-01-09T09:10:30.723Z,7.30
2023-01-09T09:12:59.856Z,7.30
2023-01-09T09:15:28.935Z,7.50
2023-01-09T09:18:02.232Z,7.60
2023-01-09T09:20:33.293Z,7.60
2023-01-09T09:23:01.533Z,7.60
2023-01-09T09:25:29.464Z,7.70
2023-01-09T09:27:56.686Z,7.80
2023-01-09T09:30:25.004Z,7.90
2023-01-09T09:32:52.526Z,7.80
2023-01-09T09:35:21.175Z,7.70
2023-01-09T09:38:05.741Z,7.80
2023-01-09T09:40:56.924Z,7.80
2023-01-09T09:46:37.073Z,7.60
2023-01-09T09:49:14.985Z,7.90
2023-01-09T09:51:57.464Z,7.90
2023-01-09T09:54:32.831Z,7.90
2023-01-09T09:57:04.055Z,8.00
2023-01-09T09:59:34.871Z,8.00
2023-01-09T10:02:11.734Z,8.10
2023-01-09T10:04:42.907Z,8.10
2023-01-09T10:07:21.991Z,8.10
2023-01-09T10:09:54.377Z,8.10
2023-01-09T10:12:46.033Z,8.10
2023-01-09T10:15:18.090Z,8.20
2023-01-09T10:18:13.536Z,8.20
2023-01-09T10:20:55.301Z,8.30
2023-01-09T10:24:02.771Z,8.30
2023-01-09T10:26:41.823Z,8.40
2023-01-09T10:29:42.799Z,7.60
2023-01-09T10:32:32.395Z,8.50
2023-01-09T10:35:15.222Z,8.50
2023-01-09T10:37:47.566Z,8.60
2023-01-09T10:40:39.712Z,8.60
2023-01-09T10:43:17.256Z,8.50
2023-01-09T10:45:52.937Z,8.40
2023-01-09T10:48:31.198Z,8.30
2023-01-09T10:50:59.814Z,8.40
2023-01-09T10:53:33.151Z,8.40
2023-01-09T10:56:26.805Z,8.50
2023-01-09T10:58:56.479Z,8.50
2023-01-09T11:01:35.991Z,8.60
2023-01-09T11:04:19.382Z,8.70
2023-01-09T11:06:53.410Z,10.60
2023-01-09T11:09:20.823Z,8.80
2023-01-09T11:11:48.262Z,8.90
2023-01-09T11:14:19.100Z,9.00
2023-01-09T11:16:56.112Z,9.20
2023-01-09T11:19:24.431Z,9.50
2023-01-09T11:22:15.819Z,9.60
2023-01-09T11:24:43.685Z,9.70
2023-01-09T11:32:52.271Z,8.90
2023-01-09T11:35:36.015Z,9.00
2023-01-09T11:38:08.461Z,8.90
2023-01-09T11:40:46.275Z,8.80
2023-01-09T11:43:19.404Z,8.70
2023-01-09T11:46:00.756Z,8.70
2023-01-09T11:48:53.076Z,8.70
2023-01-09T11:51:23.959Z,7.60
2023-01-09T11:54:15.411Z,8.20
2023-01-09T11:56:44.326Z,8.40
2023-01-09T11:59:13.995Z,8.30
2023-01-09T12:04:46.918Z,8.10
2023-01-09T12:07:41.382Z,8.90
2023-01-09T12:10:36.561Z,7.90
2023-01-09T12:13:21.314Z,8.20
2023-01-09T12:16:03.025Z,8.00
2023-01-09T12:18:55.696Z,8.00
2023-01-09T12:21:56.373Z,8.00
2023-01-09T12:24:40.145Z,8.00
2023-01-09T12:30:26.378Z,8.00
2023-01-09T12:33:12.723Z,7.90
2023-01-09T12:35:46.937Z,7.90
2023-01-09T12:44:34.592Z,8.00
2023-01-09T12:47:20.194Z,7.80
2023-01-09T12:49:59.749Z,7.70
2023-01-09T12:52:36.313Z,7.70
2023-01-09T12:55:14.860Z,7.70
2023-01-09T12:57:48.859Z,7.50
2023-01-09T13:00:26.980Z,7.60
2023-01-09T13:03:12.574Z,7.50
2023-01-09T13:05:49.229Z,7.50
2023-01-09T13:08:41.967Z,7.70
2023-01-09T13:11:20.801Z,7.60
2023-01-09T13:14:04.055Z,7.50
2023-01-09T13:16:37.007Z,7.30
2023-01-09T13:19:18.402Z,7.30
2023-01-09T13:21:46.619Z,7.20
2023-01-09T13:24:19.937Z,7.20
2023-01-09T13:26:55.206Z,7.10
2023-01-09T13:29:28.659Z,6.90
2023-01-09T13:32:33.368Z,6.80
2023-01-09T13:35:01.521Z,6.90
2023-01-09T13:37:47.982Z,6.90
2023-01-09T13:43:10.171Z,8.30
2023-01-09T13:45:39.874Z,6.90
2023-01-09T13:51:44.193Z,7.00
2023-01-09T13:57:19.798Z,7.00
2023-01-09T13:59:48.851Z,6.90
2023-01-09T14:05:36.333Z,6.90
2023-01-09T14:08:11.642Z,6.90
2023-01-09T14:10:51.959Z,7.00
2023-01-09T14:13:31.252Z,7.00
2023-01-09T14:16:06.087Z,7.00
2023-01-09T14:18:36.634Z,7.00
2023-01-09T14:23:51.530Z,7.10
2023-01-09T14:26:23.961Z,7.30
2023-01-09T14:28:51.869Z,7.40
2023-01-09T14:31:34.328Z,7.40
2023-01-09T14:34:31.392Z,7.30
2023-01-09T14:37:01.569Z,7.30
2023-01-09T14:39:32.408Z,7.30
2023-01-09T14:42:09.387Z,7.30
2023-01-09T14:45:00.897Z,7.30
2023-01-09T14:47:39.487Z,7.20
2023-01-09T14:50:32.202Z,7.10
2023-01-09T14:53:24.434Z,6.80
2023-01-09T14:55:57.940Z,5.80
2023-01-09T14:58:31.091Z,5.40
2023-01-09T15:01:01.422Z,5.00
2023-01-09T15:03:34.703Z,4.80
2023-01-09T15:06:02.477Z,4.80
2023-01-09T15:08:30.417Z,4.70
2023-01-09T15:10:59.502Z,4.60
2023-01-09T15:13:32.207Z,4.50
2023-01-09T15:16:00.759Z,4.50
2023-01-09T15:18:34.295Z,4.40
2023-01-09T15:21:03.203Z,4.30
2023-01-09T15:23:32.158Z,4.30
2023-01-09T15:26:27.767Z,4.40
2023-01-09T15:29:02.461Z,4.40
2023-01-09T15:31:30.133Z,4.40
2023-01-09T15:33:57.712Z,4.40
2023-01-09T15:36:26.829Z,4.40
2023-01-09T15:38:54.543Z,4.40
2023-01-09T15:41:46.491Z,4.40
2023-01-09T15:44:30.362Z,4.50
2023-01-09T15:47:01.077Z,4.60
2023-01-09T15:49:28.943Z,4.60
2023-01-09T15:51:56.702Z,4.60
2023-01-09T15:54:30.816Z,4.60
2023-01-09T15:57:27.885Z,4.60
2023-01-09T15:59:57.403Z,4.70
2023-01-09T16:02:45.818Z,4.70
2023-01-09T16:05:16.663Z,4.80
2023-01-09T16:07:51.871Z,4.80
2023-01-09T16:10:33.688Z,4.80
2023-01-09T16:13:02.003Z,4.80
2023-01-09T16:15:33.102Z,4.80
2023-01-09T16:21:31.354Z,4.70
2023-01-09T16:24:02.029Z,4.80
2023-01-09T16:26:30.817Z,4.70
2023-01-09T16:29:37.977Z,4.80
2023-01-09T16:32:06.875Z,4.80
2023-01-09T16:34:36.722Z,4.90
2023-01-09T16:37:05.592Z,4.90
2023-01-09T16:39:32.884Z,4.90
2023-01-09T16:42:20.504Z,4.90
2023-01-09T16:44:47.995Z,4.90
2023-01-09T16:47:15.292Z,5.00
2023-01-09T16:49:42.487Z,5.00
2023-01-09T16:52:16.587Z,5.00
2023-01-09T16:54:46.666Z,5.00
2023-01-09T16:57:18.871Z,5.00
2023-01-09T16:59:46.617Z,5.00
